createdAt,value
2019-02-20T00:00:56.935Z,100542.25
2019-02-20T00:06:00.411Z,100553.00
2019-02-20T00:11:03.886Z,100554.98
2019-02-20T00:16:07.374Z,100558.35
2019-02-20T00:21:10.885Z,100566.29
2019-02-20T00:26:14.371Z,100569.66
2019-02-20T00:31:17.845Z,100568.68
2019-02-20T00:36:21.337Z,100565.75
2019-02-20T00:41:24.828Z,100567.92
2019-02-20T00:46:29.942Z,100564.96
2019-02-20T00:51:35.076Z,100569.52
2019-02-20T00:56:38.564Z,100572.90
2019-02-20T01:01:42.056Z,100575.48
2019-02-20T01:06:45.544Z,100573.49
2019-02-20T01:11:49.030Z,100572.70
2019-02-20T01:16:52.519Z,100576.67
2019-02-20T01:21:56.117Z,100579.64
2019-02-20T01:26:59.575Z,100574.69
2019-02-20T01:32:03.074Z,100572.76
2019-02-20T01:37:06.563Z,100570.14
2019-02-20T01:42:10.059Z,100567.38
2019-02-20T01:47:13.551Z,100566.59
2019-02-20T01:52:17.027Z,100569.36
2019-02-20T01:57:20.498Z,100569.98
2019-02-20T02:02:23.973Z,100562.86
2019-02-20T02:07:27.450Z,100561.47
2019-02-20T02:12:30.922Z,100566.23
2019-02-20T02:17:34.410Z,100571.78
2019-02-20T02:22:37.878Z,100576.72
2019-02-20T02:27:41.356Z,100573.77
2019-02-20T02:32:44.836Z,100575.15
2019-02-20T02:37:48.331Z,100576.53
2019-02-20T02:42:51.868Z,100570.80
2019-02-20T02:47:55.346Z,100574.36
2019-02-20T02:52:58.822Z,100570.80
2019-02-20T02:58:02.299Z,100570.61
2019-02-20T03:03:05.777Z,100586.45
2019-02-20T03:08:09.253Z,100583.08
2019-02-20T03:13:12.726Z,100584.47
2019-02-20T03:18:16.208Z,100580.91
2019-02-20T03:23:19.675Z,100572.59
2019-02-20T03:28:23.151Z,100580.72
2019-02-20T03:33:26.630Z,100579.33
2019-02-20T03:38:30.743Z,100591.02
2019-02-20T03:43:34.351Z,100602.11
2019-02-20T03:48:37.826Z,100596.56
2019-02-20T03:53:50.887Z,100600.56
2019-02-20T03:58:46.498Z,100595.02
2019-02-20T04:03:49.974Z,100597.79
2019-02-20T04:08:53.449Z,100601.75
2019-02-20T04:13:56.939Z,100603.73
2019-02-20T04:19:00.416Z,100604.72
2019-02-20T04:24:03.918Z,100601.16
2019-02-20T04:29:07.383Z,100608.69
2019-02-20T04:34:10.858Z,100617.60
2019-02-20T04:39:14.333Z,100617.60
2019-02-20T04:44:17.825Z,100614.83
2019-02-20T04:49:21.328Z,100607.30
2019-02-20T04:54:24.819Z,100606.87
2019-02-20T04:59:28.405Z,100605.67
2019-02-20T05:04:31.949Z,100607.66
2019-02-20T05:09:35.426Z,100620.33
2019-02-20T05:14:38.907Z,100615.38
2019-02-20T05:19:42.381Z,100616.17
2019-02-20T05:24:45.866Z,100622.91
2019-02-20T05:29:49.326Z,100618.75
2019-02-20T05:34:52.817Z,100622.12
2019-02-20T05:39:56.333Z,100629.05
2019-02-20T05:44:59.823Z,100624.89
2019-02-20T05:50:03.388Z,100619.97
2019-02-20T05:55:07.513Z,100624.73
2019-02-20T06:00:13.153Z,100641.96
2019-02-20T06:05:16.638Z,100643.34
2019-02-20T06:10:20.130Z,100652.45
2019-02-20T06:15:23.639Z,100662.76
2019-02-20T06:20:27.134Z,100666.12
2019-02-20T06:25:30.628Z,100665.53
2019-02-20T06:30:34.119Z,100672.27
2019-02-20T06:35:37.645Z,100681.97
2019-02-20T06:40:41.170Z,100686.13
2019-02-20T06:45:44.637Z,100695.02
2019-02-20T06:50:48.125Z,100703.34
2019-02-20T06:55:51.619Z,100700.97
2019-02-20T07:00:55.120Z,100703.93
2019-02-20T07:06:01.664Z,100702.95
2019-02-20T07:11:22.717Z,100705.13
2019-02-20T07:16:44.220Z,100710.67
2019-02-20T07:21:59.762Z,100705.91
2019-02-20T07:27:15.307Z,100712.05
2019-02-20T07:32:18.784Z,100724.53
2019-02-20T07:37:22.262Z,100729.94
2019-02-20T07:42:25.736Z,100729.94
2019-02-20T07:47:29.206Z,100750.88
2019-02-20T07:52:32.681Z,100760.58
2019-02-20T07:57:36.161Z,100771.11
2019-02-20T08:02:39.636Z,100774.60
2019-02-20T08:07:43.112Z,100787.59
2019-02-20T08:12:46.600Z,100785.78
2019-02-20T08:17:50.071Z,100788.12
2019-02-20T08:22:53.586Z,100798.00
2019-02-20T08:27:57.026Z,100800.79
2019-02-20T08:33:00.520Z,100799.88
2019-02-20T08:38:03.977Z,100800.38
2019-02-20T08:43:07.457Z,100805.03
2019-02-20T08:48:10.927Z,100816.56
2019-02-20T08:53:14.417Z,100819.58
2019-02-20T08:58:17.890Z,100820.55
2019-02-20T09:03:21.368Z,100819.42
2019-02-20T09:08:24.913Z,100823.17
2019-02-20T09:13:28.404Z,100821.22
2019-02-20T09:18:31.863Z,100832.64
2019-02-20T09:23:35.334Z,100834.23
2019-02-20T09:28:38.810Z,100832.24
2019-02-20T09:33:42.304Z,100843.30
2019-02-20T09:38:45.766Z,100836.97
2019-02-20T09:43:49.244Z,100841.69
2019-02-20T09:48:52.716Z,100847.44
2019-02-20T09:53:56.208Z,100850.81
2019-02-20T09:58:59.692Z,100863.06
2019-02-20T10:04:03.176Z,100864.23
2019-02-20T10:09:06.646Z,100865.03
2019-02-20T10:14:10.125Z,100868.17
2019-02-20T10:19:13.598Z,100866.36
2019-02-20T10:24:17.078Z,100874.88
2019-02-20T10:29:20.550Z,100863.77
2019-02-20T10:34:24.027Z,100861.98
2019-02-20T10:39:27.498Z,100867.70
2019-02-20T10:44:30.978Z,100864.53
2019-02-20T10:49:34.451Z,100875.02
2019-02-20T10:54:37.925Z,100871.63
2019-02-20T10:59:41.404Z,100876.98
2019-02-20T11:04:44.870Z,100874.17
2019-02-20T11:09:48.344Z,100872.79
2019-02-20T11:14:51.824Z,100874.73
2019-02-20T11:19:55.295Z,100873.15
2019-02-20T11:24:58.766Z,100872.95
2019-02-20T11:30:02.265Z,100862.23
2019-02-20T11:35:07.373Z,100862.62
2019-02-20T11:40:12.399Z,100862.42
2019-02-20T11:45:16.912Z,100859.84
2019-02-20T11:50:20.391Z,100854.27
2019-02-20T11:55:23.863Z,100848.34
2019-02-20T12:00:27.347Z,100850.13
2019-02-20T12:05:30.821Z,100848.31
2019-02-20T12:10:34.294Z,100846.72
2019-02-20T12:15:37.776Z,100846.72
2019-02-20T12:20:41.517Z,100849.09
2019-02-20T12:25:45.071Z,100847.11
2019-02-20T12:30:48.543Z,100841.93
2019-02-20T12:35:52.010Z,100854.80
2019-02-20T12:40:55.490Z,100850.64
2019-02-20T12:45:59.034Z,100845.49
2019-02-20T12:51:02.510Z,100853.41
2019-02-20T12:56:10.040Z,100850.64
2019-02-20T13:01:11.213Z,100853.77
2019-02-20T13:06:14.682Z,100854.56
2019-02-20T13:11:18.287Z,100842.08
2019-02-20T13:16:21.769Z,100851.59
2019-02-20T13:21:25.250Z,100847.63
2019-02-20T13:26:28.722Z,100850.41
2019-02-20T13:31:32.194Z,100843.66
2019-02-20T13:36:35.666Z,100845.05
2019-02-20T13:41:39.143Z,100845.25
2019-02-20T13:46:43.475Z,100830.39
2019-02-20T13:51:47.422Z,100837.31
2019-02-20T13:56:50.902Z,100837.67
2019-02-20T14:01:54.374Z,100835.30
2019-02-20T14:06:59.728Z,100839.84
2019-02-20T14:12:03.051Z,100845.59
2019-02-20T14:17:06.531Z,100841.23
2019-02-20T14:22:10.002Z,100842.22
2019-02-20T14:27:13.478Z,100845.59
2019-02-20T14:32:16.949Z,100844.01
2019-02-20T14:37:20.422Z,100843.02
2019-02-20T14:42:23.914Z,100844.60
2019-02-20T14:47:27.367Z,100842.23
2019-02-20T14:52:30.843Z,100841.63
2019-02-20T14:57:34.498Z,100845.20
2019-02-20T15:02:37.976Z,100851.94
2019-02-20T15:07:41.451Z,100848.77
2019-02-20T15:12:46.635Z,100844.01
2019-02-20T15:17:50.291Z,100845.00
2019-02-20T15:22:54.137Z,100845.00
2019-02-20T15:27:57.616Z,100850.95
2019-02-20T15:33:01.096Z,100856.50
2019-02-20T15:38:05.222Z,100856.50
2019-02-20T15:43:08.897Z,100854.16
2019-02-20T15:48:12.656Z,100855.34
2019-02-20T15:53:16.130Z,100855.95
2019-02-20T15:58:19.608Z,100858.52
2019-02-20T16:03:23.083Z,100863.47
2019-02-20T16:08:26.559Z,100870.41
2019-02-20T16:13:30.029Z,100868.63
2019-02-20T16:18:33.581Z,100876.95
2019-02-20T16:23:37.054Z,100877.74
2019-02-20T16:28:40.532Z,100885.08
2019-02-20T16:33:44.117Z,100890.63
2019-02-20T16:38:47.562Z,100895.38
2019-02-20T16:43:51.063Z,100900.53
2019-02-20T16:48:54.539Z,100900.53
2019-02-20T16:53:58.312Z,100905.48
2019-02-20T16:59:01.787Z,100916.17
2019-02-20T17:04:07.086Z,100923.31
2019-02-20T17:09:10.863Z,100926.68
2019-02-20T17:14:14.341Z,100934.61
2019-02-20T17:19:18.172Z,100946.86
2019-02-20T17:24:21.644Z,100948.44
2019-02-20T17:29:25.122Z,100949.23
2019-02-20T17:34:28.593Z,100953.98
2019-02-20T17:39:32.141Z,100954.95
2019-02-20T17:44:35.895Z,100954.55
2019-02-20T17:49:39.370Z,100963.66
2019-02-20T17:54:42.844Z,100952.16
2019-02-20T17:59:46.326Z,100959.30
2019-02-20T18:04:49.819Z,100960.28
2019-02-20T18:09:53.317Z,100967.22
2019-02-20T18:14:56.818Z,100968.19
2019-02-20T18:20:00.316Z,100972.94
2019-02-20T18:25:04.459Z,100966.99
2019-02-20T18:30:13.523Z,100974.72
2019-02-20T18:35:18.435Z,100985.22
2019-02-20T18:40:21.915Z,100981.86
2019-02-20T18:45:25.386Z,100988.39
2019-02-20T18:50:28.863Z,100987.00
2019-02-20T18:55:32.344Z,100984.43
2019-02-20T19:00:35.819Z,100990.58
2019-02-20T19:05:39.306Z,100995.73
2019-02-20T19:10:42.783Z,100992.95
2019-02-20T19:15:55.303Z,100998.67
2019-02-20T19:21:13.729Z,101005.61
2019-02-20T19:26:32.495Z,101002.23
2019-02-20T19:31:39.124Z,100997.11
2019-02-20T19:36:51.342Z,101000.05
2019-02-20T19:41:57.879Z,101007.79
2019-02-20T19:47:25.220Z,101012.14
2019-02-20T19:52:49.925Z,101014.92
2019-02-20T19:58:11.559Z,101016.11
2019-02-20T20:03:40.749Z,101012.14
2019-02-20T20:09:06.906Z,101010.95
2019-02-20T20:14:25.183Z,101013.73
2019-02-20T20:19:43.491Z,101013.53
2019-02-20T20:24:58.535Z,101018.49
2019-02-20T20:30:36.817Z,101018.49
2019-02-20T20:36:09.142Z,101013.93
2019-02-20T20:41:24.414Z,101021.86
2019-02-20T20:46:36.485Z,101021.86
2019-02-20T20:52:08.854Z,101020.87
2019-02-20T20:57:30.237Z,101018.89
2019-02-20T21:02:36.761Z,101021.66
2019-02-20T21:07:55.426Z,101012.38
2019-02-20T21:13:11.006Z,101011.78
2019-02-20T21:18:32.282Z,101009.01
2019-02-20T21:23:50.709Z,101009.41
2019-02-20T21:29:12.082Z,101009.41
2019-02-20T21:34:41.222Z,101007.82
2019-02-20T21:39:47.751Z,101018.92
2019-02-20T21:45:16.619Z,101015.95
2019-02-20T21:50:43.948Z,101015.16
2019-02-20T21:56:11.581Z,101016.55
2019-02-20T22:01:24.046Z,101013.77
2019-02-20T22:06:48.767Z,101019.13
2019-02-20T22:11:57.774Z,101014.16
2019-02-20T22:17:23.717Z,101010.59
2019-02-20T22:22:30.250Z,101021.10
2019-02-20T22:27:39.562Z,101015.55
2019-02-20T22:32:46.089Z,101015.36
2019-02-20T22:37:58.509Z,101018.33
2019-02-20T22:43:10.789Z,101020.91
2019-02-20T22:48:23.664Z,101015.36
2019-02-20T22:53:51.531Z,101016.58
2019-02-20T22:59:00.910Z,101022.30
2019-02-20T23:04:15.789Z,101019.34
2019-02-20T23:09:28.628Z,101020.91
2019-02-20T23:14:44.025Z,101022.89
2019-02-20T23:19:47.498Z,101021.33
2019-02-20T23:24:50.975Z,101028.86
2019-02-20T23:29:54.452Z,101032.43
2019-02-20T23:34:57.933Z,101036.59
2019-02-20T23:40:01.426Z,101036.59
2019-02-20T23:45:07.605Z,101044.72
2019-02-20T23:50:11.307Z,101046.11
2019-02-20T23:55:14.782Z,101045.91
